CST,Max TemperatureF,Mean TemperatureF,Min TemperatureF,Max Dew PointF,MeanDew PointF,Min DewpointF,Max Humidity, Mean Humidity, Min Humidity, Max Sea Level PressureIn, Mean Sea Level PressureIn, Min Sea Level PressureIn, Max VisibilityMiles, Mean VisibilityMiles, Min VisibilityMiles, Max Wind SpeedMPH, Mean Wind SpeedMPH, Max Gust SpeedMPH,PrecipitationIn, CloudCover, Events, WindDirDegrees
2012-11-1,57,46,35,41,37,33,92,73,54,30.02,29.99,29.96,10,9,7,20,7,23,0.00,5,,351
2012-11-2,55,45,34,32,30,28,76,56,35,30.11,30.02,29.96,10,10,10,17,9,22,0.00,6,,88
2012-11-3,55,42,28,35,31,26,92,67,41,30.25,30.20,30.12,10,10,9,10,5,13,0.00,2,,2
2012-11-4,59,50,40,45,37,34,93,70,47,30.21,30.11,30.00,10,9,3,20,7,23,0.09,7,Rain,178
2012-11-5,47,44,41,45,40,39,93,91,89,30.17,30.11,30.02,5,3,1,24,11,32,T,8,Rain,338
2012-11-6,58,48,38,39,34,30,89,63,36,30.09,30.02,29.96,10,9,5,32,14,40,0.00,3,,300
2012-11-7,53,41,29,34,31,27,92,68,44,30.21,30.12,30.05,10,10,10,12,5,13,0.00,2,,107
2012-11-8,65,52,38,39,35,31,82,58,34,30.04,29.93,29.86,10,10,7,18,8,22,0.00,0,,162
2012-11-9,65,51,36,56,44,33,92,74,55,29.88,29.77,29.63,10,10,9,18,9,23,0.00,3,,101
2012-11-10,77,62,46,58,53,44,84,65,46,29.67,29.57,29.46,10,9,4,32,20,44,0.29,3,Rain-Thunderstorm,179
2012-11-11,46,36,25,41,22,13,93,69,45,30.21,29.94,29.67,10,8,2,28,17,35,T,5,Rain-Snow,322
2012-11-12,41,33,24,20,16,13,75,56,37,30.41,30.32,30.22,10,10,10,25,10,31,0.00,0,,279
2012-11-13,53,38,23,32,24,18,81,55,29,30.43,30.35,30.28,10,10,10,16,9,18,0.00,4,,157
2012-11-14,58,45,32,29,27,23,82,54,25,30.35,30.27,30.21,10,10,10,18,10,22,0.00,4,,165
2012-11-15,59,47,34,33,31,28,82,60,37,30.47,30.32,30.21,10,10,10,16,8,20,0.00,4,,7
2012-11-16,55,39,23,34,29,21,88,66,43,30.51,30.42,30.33,10,10,8,14,6,17,0.00,0,Fog,149
2012-11-17,62,51,39,36,34,30,79,58,36,30.33,30.24,30.16,10,10,10,28,15,35,0.00,3,,160
2012-11-18,62,54,45,38,32,27,53,43,33,30.18,30.11,30.04,10,10,10,22,15,29,T,6,Rain,162
2012-11-19,62,51,40,40,37,34,76,61,46,30.13,30.06,30.02,10,10,10,18,8,24,0.00,1,,235
2012-11-20,62,46,30,38,34,29,92,64,35,30.26,30.18,30.14,10,9,7,13,5,14,0.00,1,,143
2012-11-21,72,56,39,45,40,34,79,57,35,30.13,29.99,29.81,10,10,10,28,13,37,0.00,1,,167
2012-11-22,62,51,39,44,37,30,83,62,40,30.23,29.94,29.74,10,10,10,35,13,43,0.00,2,,289
2012-11-23,40,31,21,26,13,10,65,52,38,30.53,30.46,30.27,10,10,10,36,16,43,0.00,1,,331
2012-11-24,44,31,18,25,18,13,77,57,36,30.43,30.12,29.89,10,10,10,22,9,29,0.00,7,,154
2012-11-25,42,37,32,27,26,25,75,65,54,30.18,30.03,29.89,10,10,10,16,7,20,0.00,7,,347
2012-11-26,36,27,17,26,20,13,78,64,49,30.51,30.40,30.19,10,8,1,20,9,22,T,6,Snow,2
2012-11-27,44,30,15,24,18,11,88,67,45,30.50,30.35,30.22,10,10,7,20,7,25,0.00,3,,172
2012-11-28,47,33,18,27,23,16,92,65,38,30.43,30.30,30.12,10,8,0,17,7,18,0.00,4,Fog,169
2012-11-29,54,42,29,36,31,26,92,71,50,30.12,30.01,29.95,10,10,8,14,6,15,0.00,4,,154
2012-11-30,45,37,28,33,29,25,89,74,58,30.13,30.05,29.96,10,7,5,16,6,20,0.00,5,,335